Weather at Białystok-Krywlany Airport

Public forecast

Using degrees Celsius for public forecast. Weather courtesy of forecast.io.

Closest aviation weather report (METAR) to Białystok-Krywlany Airport

Report is more than 6 hours old.

Closest report is Hrodna Airport, 43.6 nm (80.8 km) NE. Retrieved 2021/03/03 16:00 UTC (8 hours ago):

UMMG 031600Z 19004MPS CAVOK 04/00 Q1022 NOSIG

Closest aviation forecast (TAF) to Białystok-Krywlany Airport

Forecast is more than 12 hours old.

Closest forecast is Hrodna Airport, 43.6 nm (80.8 km) NE. Retrieved 2018/08/30 12:24 UTC (3 years ago):

TAF UMMG 301100Z 3012/30218 18005MPS 9999 BKN020